高雄國際航空站 - 塔台/地面席

METAR RCKH 200630Z 27009KT 250V310 7000 FEW016 BKN090 BKN130 24/17 Q1014 NOSIG RMK A2995=

站台狀態:Online
最後更新:2022-01-20 22:00:02